Time;durP1;ratioP1;P1;durP2;ratioP2;P2;SDS_P1;SDS_P2;PMS_P1;PMS_P2;Temp;Humidity;BMP_temperature;BMP_pressure;BME280_temperature;BME280_humidity;BME280_pressure;Samples;Min_cycle;Max_cycle;Signal;HPM_P1;HPM_P2
2021/04/17 00:01:40;;;;;;;4.20;2.60;;;12.20;54.50;;;;;;5020355;28;20068;-84
2021/04/17 00:04:07;;;;;;;4.07;2.50;;;12.20;54.60;;;;;;5051438;28;20083;-87
2021/04/17 00:06:34;;;;;;;3.55;2.22;;;12.10;54.60;;;;;;5031919;28;20055;-86
2021/04/17 00:09:01;;;;;;;4.93;2.45;;;12.10;54.60;;;;;;5016970;28;20028;-84
2021/04/17 00:11:27;;;;;;;4.20;2.40;;;12.10;54.60;;;;;;5031339;28;20076;-83
2021/04/17 00:13:53;;;;;;;3.75;2.63;;;12.10;54.60;;;;;;5035555;28;20088;-83
2021/04/17 00:16:20;;;;;;;3.63;2.45;;;12.00;54.60;;;;;;5036141;28;20040;-84
2021/04/17 00:18:46;;;;;;;3.78;2.35;;;12.00;54.70;;;;;;5018676;28;20025;-83
2021/04/17 00:21:12;;;;;;;4.15;2.58;;;11.90;54.70;;;;;;5045788;28;20037;-83
2021/04/17 00:23:39;;;;;;;4.15;2.38;;;11.90;54.80;;;;;;5012862;28;20077;-83
2021/04/17 00:26:04;;;;;;;4.40;2.80;;;11.80;54.80;;;;;;4988429;28;20038;-84
2021/04/17 00:28:30;;;;;;;3.22;2.35;;;11.80;54.80;;;;;;5012339;28;20364;-83
2021/04/17 00:30:56;;;;;;;3.60;2.40;;;11.80;54.90;;;;;;5007104;28;20042;-83
2021/04/17 00:33:22;;;;;;;4.82;2.70;;;11.80;55.00;;;;;;5027491;28;20630;-84
2021/04/17 00:35:49;;;;;;;3.60;2.40;;;11.70;54.90;;;;;;5015734;28;20030;-84
2021/04/17 00:38:15;;;;;;;4.47;2.78;;;11.70;55.00;;;;;;5002854;28;20061;-84
2021/04/17 00:40:40;;;;;;;3.97;2.42;;;11.70;55.00;;;;;;5012325;28;20033;-85
2021/04/17 00:43:06;;;;;;;3.38;2.40;;;11.60;55.00;;;;;;4995534;28;20044;-84
2021/04/17 00:45:33;;;;;;;3.72;2.47;;;11.60;55.00;;;;;;5017765;28;20110;-84
2021/04/17 00:47:59;;;;;;;4.13;2.47;;;11.50;55.00;;;;;;5024605;28;20483;-84
2021/04/17 00:50:25;;;;;;;3.70;2.40;;;11.50;55.10;;;;;;5015881;28;20073;-84
2021/04/17 00:52:53;;;;;;;3.90;2.50;;;11.50;55.10;;;;;;5032341;28;20034;-84
2021/04/17 00:55:20;;;;;;;3.92;2.63;;;11.40;55.10;;;;;;5032203;28;20349;-85
2021/04/17 00:57:46;;;;;;;3.25;2.28;;;11.40;55.20;;;;;;4975252;28;20032;-83
2021/04/17 01:00:12;;;;;;;4.28;2.45;;;11.30;55.20;;;;;;5014158;28;20029;-85
2021/04/17 01:02:55;;;;;;;3.53;2.55;;;11.30;55.20;;;;;;4988659;28;20053;-84
2021/04/17 01:05:24;;;;;;;3.35;2.17;;;11.30;55.30;;;;;;5015768;28;20390;-84
2021/04/17 01:07:51;;;;;;;2.92;2.20;;;11.30;55.20;;;;;;5003168;28;20355;-85
2021/04/17 01:10:40;;;;;;;4.13;2.40;;;11.20;55.30;;;;;;5020298;28;20037;-84
2021/04/17 01:13:07;;;;;;;3.60;2.40;;;11.20;55.40;;;;;;5011389;28;20040;-84
2021/04/17 01:15:34;;;;;;;4.13;2.40;;;11.20;55.30;;;;;;4988087;28;20043;-84
2021/04/17 01:18:01;;;;;;;3.47;2.30;;;11.10;55.30;;;;;;5011841;28;20033;-83
2021/04/17 01:20:40;;;;;;;4.15;2.47;;;11.10;55.40;;;;;;5000576;28;20041;-83
2021/04/17 01:23:23;;;;;;;4.35;2.40;;;11.10;55.50;;;;;;5023753;28;20049;-83
2021/04/17 01:25:51;;;;;;;2.78;2.13;;;11.00;55.40;;;;;;5035231;28;20025;-84
2021/04/17 01:28:18;;;;;;;3.80;2.22;;;11.00;55.40;;;;;;5029249;28;20064;-84
2021/04/17 01:30:47;;;;;;;3.10;2.08;;;11.00;55.50;;;;;;5025285;28;20045;-83
2021/04/17 01:33:15;;;;;;;4.57;2.50;;;10.90;55.50;;;;;;5017050;28;20037;-86
2021/04/17 01:35:42;;;;;;;3.20;2.20;;;10.90;55.50;;;;;;5005851;28;20025;-83
2021/04/17 01:38:32;;;;;;;4.07;2.33;;;10.90;55.50;;;;;;5031006;28;20057;-84
2021/04/17 01:41:02;;;;;;;4.65;2.28;;;10.80;55.60;;;;;;5024891;28;20128;-84
2021/04/17 01:43:31;;;;;;;3.72;2.22;;;10.80;55.70;;;;;;5037034;28;20037;-84
2021/04/17 01:46:02;;;;;;;3.17;2.03;;;10.80;55.60;;;;;;5018447;28;20025;-84
2021/04/17 01:48:29;;;;;;;3.25;2.15;;;10.80;55.70;;;;;;5034853;28;20087;-84
2021/04/17 01:50:57;;;;;;;2.90;2.20;;;10.70;55.70;;;;;;5034903;28;20033;-83
2021/04/17 01:53:27;;;;;;;3.80;2.30;;;10.70;55.70;;;;;;5015599;28;20037;-85
2021/04/17 01:55:54;;;;;;;3.42;2.20;;;10.70;55.80;;;;;;5034769;28;20501;-84
2021/04/17 01:58:29;;;;;;;3.65;2.10;;;10.60;55.70;;;;;;5047473;28;20032;-84
2021/04/17 02:00:56;;;;;;;3.28;1.90;;;10.60;55.70;;;;;;5027158;28;20022;-83
2021/04/17 02:03:22;;;;;;;3.38;2.42;;;10.60;55.80;;;;;;5045740;28;20117;-83
2021/04/17 02:05:53;;;;;;;2.80;2.10;;;10.50;55.70;;;;;;5019312;28;20445;-83
2021/04/17 02:08:19;;;;;;;3.90;2.15;;;10.50;55.80;;;;;;5045200;28;20033;-83
2021/04/17 02:10:46;;;;;;;3.60;2.30;;;10.50;55.90;;;;;;5038522;28;20038;-83
2021/04/17 02:13:13;;;;;;;3.28;2.00;;;10.50;55.90;;;;;;5002563;28;20056;-83
2021/04/17 02:15:40;;;;;;;3.38;2.35;;;10.40;55.90;;;;;;5020995;28;20033;-83
2021/04/17 02:18:27;;;;;;;3.13;2.20;;;10.40;55.90;;;;;;5046877;28;20025;-83
2021/04/17 02:21:15;;;;;;;3.72;2.03;;;10.40;56.00;;;;;;5040544;28;20090;-83
2021/04/17 02:23:41;;;;;;;3.10;2.00;;;10.30;56.00;;;;;;5041179;28;20041;-83
2021/04/17 02:26:07;;;;;;;3.90;2.30;;;10.30;56.00;;;;;;5014274;28;20432;-83
2021/04/17 02:28:32;;;;;;;2.80;1.90;;;10.30;56.10;;;;;;5008578;28;20030;-83
2021/04/17 02:31:02;;;;;;;4.30;2.15;;;10.30;56.10;;;;;;5012695;28;20033;-83
2021/04/17 02:33:28;;;;;;;2.35;1.88;;;10.20;56.10;;;;;;5026145;28;20041;-83
2021/04/17 02:35:54;;;;;;;3.05;1.98;;;10.20;56.10;;;;;;5011205;28;20026;-84
2021/04/17 02:38:19;;;;;;;3.28;1.98;;;10.20;56.10;;;;;;5000507;28;20034;-83
2021/04/17 02:40:46;;;;;;;2.30;1.80;;;10.20;56.10;;;;;;5001186;28;20340;-84
2021/04/17 02:43:11;;;;;;;3.10;2.30;;;10.10;56.10;;;;;;5018474;28;20049;-83
2021/04/17 02:45:37;;;;;;;2.67;1.73;;;10.10;56.20;;;;;;5018200;28;20421;-83
2021/04/17 02:48:03;;;;;;;3.67;2.08;;;10.10;56.20;;;;;;5015189;28;20048;-83
2021/04/17 02:50:29;;;;;;;3.58;2.33;;;10.10;56.20;;;;;;5001974;28;20034;-85
2021/04/17 02:52:55;;;;;;;3.25;2.22;;;10.00;56.20;;;;;;4998335;28;20378;-83
2021/04/17 02:55:21;;;;;;;2.72;2.05;;;10.00;56.30;;;;;;5018113;28;20048;-83
2021/04/17 02:57:47;;;;;;;3.33;2.08;;;10.00;56.30;;;;;;4986751;28;20030;-82
2021/04/17 03:00:21;;;;;;;2.58;1.95;;;10.00;56.30;;;;;;5015250;28;20030;-84
2021/04/17 03:02:46;;;;;;;3.33;2.30;;;9.90;56.30;;;;;;5013941;28;20040;-83
2021/04/17 03:05:13;;;;;;;3.20;1.95;;;9.90;56.30;;;;;;5021687;28;20029;-84
2021/04/17 03:07:38;;;;;;;2.80;2.00;;;9.90;56.30;;;;;;5005454;28;20022;-84
2021/04/17 03:10:06;;;;;;;3.90;2.20;;;9.80;56.30;;;;;;5017193;28;20052;-84
2021/04/17 03:12:32;;;;;;;3.13;1.80;;;9.90;56.50;;;;;;5018484;28;20041;-83
2021/04/17 03:14:58;;;;;;;3.97;2.00;;;9.80;57.10;;;;;;5020637;28;20048;-84
2021/04/17 03:17:24;;;;;;;3.08;2.00;;;9.80;56.50;;;;;;5017539;28;20116;-84
2021/04/17 03:19:49;;;;;;;2.75;1.98;;;9.80;56.50;;;;;;5001737;28;20034;-87
2021/04/17 03:22:16;;;;;;;3.10;1.90;;;9.70;56.50;;;;;;5019860;28;20544;-84
2021/04/17 03:24:42;;;;;;;3.22;2.08;;;9.70;56.50;;;;;;5022049;28;20050;-86
2021/04/17 03:27:08;;;;;;;4.68;2.25;;;9.70;56.60;;;;;;5015359;28;20450;-84
2021/04/17 03:29:34;;;;;;;4.20;2.05;;;9.70;56.60;;;;;;5014774;28;20065;-83
2021/04/17 03:32:00;;;;;;;3.63;2.13;;;9.60;56.60;;;;;;5006771;28;20056;-83
2021/04/17 03:34:25;;;;;;;3.53;2.20;;;9.60;56.60;;;;;;5015322;28;20034;-83
2021/04/17 03:36:51;;;;;;;4.07;2.28;;;9.60;56.60;;;;;;5018814;28;20038;-83
2021/04/17 03:39:17;;;;;;;2.75;1.83;;;9.60;56.60;;;;;;4987781;28;20022;-83
2021/04/17 03:41:43;;;;;;;3.97;2.20;;;9.60;56.70;;;;;;5011057;28;20679;-83
2021/04/17 03:44:09;;;;;;;2.45;1.98;;;9.50;56.70;;;;;;5017857;28;20084;-84
2021/04/17 03:46:34;;;;;;;2.88;2.00;;;9.50;56.70;;;;;;5013412;28;20034;-83
2021/04/17 03:49:00;;;;;;;3.08;2.17;;;9.50;56.80;;;;;;4999936;28;20029;-84
2021/04/17 03:51:27;;;;;;;3.05;2.00;;;9.40;56.70;;;;;;5016043;28;20486;-84
2021/04/17 03:53:53;;;;;;;2.33;2.03;;;9.50;56.80;;;;;;5000187;28;20099;-83
2021/04/17 03:56:20;;;;;;;4.03;2.38;;;9.40;56.80;;;;;;4999561;28;20056;-83
2021/04/17 03:58:45;;;;;;;3.30;2.17;;;9.40;56.90;;;;;;5020412;28;20062;-84
2021/04/17 04:01:11;;;;;;;2.97;2.00;;;9.40;56.90;;;;;;4998961;28;20037;-84
2021/04/17 04:03:37;;;;;;;4.03;2.10;;;9.30;56.90;;;;;;4999334;28;20036;-83
2021/04/17 04:06:03;;;;;;;2.80;2.22;;;9.30;56.90;;;;;;5001929;28;20025;-83
2021/04/17 04:08:29;;;;;;;2.05;1.85;;;9.30;56.90;;;;;;5014476;28;20032;-82
2021/04/17 04:10:55;;;;;;;3.40;1.95;;;9.30;57.00;;;;;;5015971;28;20141;-83
2021/04/17 04:13:21;;;;;;;3.22;1.95;;;9.20;57.00;;;;;;5016533;28;20033;-83
2021/04/17 04:15:47;;;;;;;3.33;2.22;;;9.20;57.00;;;;;;5031103;28;20390;-84
2021/04/17 04:18:12;;;;;;;3.05;2.00;;;9.20;57.00;;;;;;5010873;28;20030;-83
2021/04/17 04:20:38;;;;;;;2.75;2.00;;;9.20;57.10;;;;;;5016063;28;20033;-83
2021/04/17 04:23:04;;;;;;;2.83;1.95;;;9.20;57.10;;;;;;5020690;28;20518;-84
2021/04/17 04:25:30;;;;;;;2.95;1.98;;;9.10;57.10;;;;;;4996782;28;20115;-84
2021/04/17 04:27:56;;;;;;;2.97;2.08;;;9.10;57.20;;;;;;5024014;28;20076;-87
2021/04/17 04:30:23;;;;;;;2.78;2.00;;;9.10;57.20;;;;;;5013205;28;20064;-83
2021/04/17 04:32:49;;;;;;;2.03;1.70;;;9.10;57.30;;;;;;5017393;28;20033;-83
2021/04/17 04:35:15;;;;;;;4.07;1.92;;;9.00;57.30;;;;;;5013395;28;20471;-83
2021/04/17 04:37:42;;;;;;;2.00;1.75;;;9.00;57.40;;;;;;4990833;28;20034;-83
2021/04/17 04:40:09;;;;;;;4.55;2.33;;;9.00;57.40;;;;;;5016142;28;20421;-85
2021/04/17 04:42:35;;;;;;;2.70;2.10;;;8.90;57.40;;;;;;5014896;28;20557;-84
2021/04/17 04:45:05;;;;;;;3.10;2.25;;;8.90;57.40;;;;;;5004492;28;20053;-84
2021/04/17 04:47:31;;;;;;;2.60;1.90;;;8.90;57.50;;;;;;5019540;28;20510;-83
2021/04/17 04:49:56;;;;;;;3.47;2.22;;;8.90;57.40;;;;;;5011569;28;20034;-84
2021/04/17 04:52:22;;;;;;;2.45;1.65;;;8.90;57.40;;;;;;5021402;28;20360;-84
2021/04/17 04:54:48;;;;;;;2.75;2.00;;;8.90;57.50;;;;;;5011633;28;20228;-84
2021/04/17 04:57:14;;;;;;;2.58;1.80;;;8.90;57.50;;;;;;5003051;28;20080;-89
2021/04/17 04:59:40;;;;;;;2.97;1.80;;;8.80;57.50;;;;;;5015271;28;20017;-83
2021/04/17 05:02:05;;;;;;;3.95;2.05;;;8.80;57.50;;;;;;5029513;28;20044;-83
2021/04/17 05:04:31;;;;;;;2.60;1.90;;;8.80;57.60;;;;;;5020598;28;20033;-84
2021/04/17 05:06:57;;;;;;;4.38;2.10;;;8.80;57.60;;;;;;5005820;28;20498;-84
2021/04/17 05:09:22;;;;;;;3.30;2.20;;;8.80;57.60;;;;;;5005431;28;20038;-84
2021/04/17 05:11:48;;;;;;;2.55;1.90;;;8.80;57.60;;;;;;4988622;28;20566;-82
2021/04/17 05:14:14;;;;;;;2.22;1.70;;;8.80;57.70;;;;;;5002086;28;20059;-83
2021/04/17 05:16:40;;;;;;;2.92;1.98;;;8.80;57.70;;;;;;5027692;28;20413;-83
2021/04/17 05:19:06;;;;;;;2.90;2.00;;;8.70;57.70;;;;;;5020083;28;20030;-82
2021/04/17 05:21:31;;;;;;;2.03;1.83;;;8.70;57.80;;;;;;5020621;28;20041;-87
2021/04/17 05:23:58;;;;;;;3.00;2.20;;;8.70;57.80;;;;;;5022961;28;20095;-83
2021/04/17 05:26:24;;;;;;;3.47;2.05;;;8.60;57.80;;;;;;5031434;28;20107;-83
2021/04/17 05:28:49;;;;;;;3.65;1.90;;;8.70;57.90;;;;;;5017046;28;20034;-84
2021/04/17 05:31:15;;;;;;;2.70;2.03;;;8.60;57.90;;;;;;5018596;28;20026;-83
2021/04/17 05:33:41;;;;;;;2.83;1.92;;;8.60;57.90;;;;;;5031384;28;20033;-83
2021/04/17 05:36:07;;;;;;;2.25;1.83;;;8.60;58.60;;;;;;5012485;28;20034;-83
2021/04/17 05:38:33;;;;;;;2.78;1.88;;;8.60;58.00;;;;;;5024429;28;20172;-88
2021/04/17 05:40:59;;;;;;;2.78;2.22;;;8.60;58.10;;;;;;5022437;28;20028;-83
2021/04/17 05:43:25;;;;;;;2.33;1.77;;;8.60;58.70;;;;;;4999045;28;20758;-84
2021/04/17 05:45:50;;;;;;;2.92;2.08;;;8.60;58.10;;;;;;5025376;28;20025;-84
2021/04/17 05:48:16;;;;;;;2.97;2.00;;;8.50;58.10;;;;;;5003265;28;20034;-83
2021/04/17 05:50:42;;;;;;;2.85;1.98;;;8.50;58.10;;;;;;5007901;28;20026;-83
2021/04/17 05:53:08;;;;;;;3.00;1.95;;;8.50;58.20;;;;;;5003040;28;20041;-82
2021/04/17 05:55:34;;;;;;;2.45;1.80;;;8.50;58.30;;;;;;5019512;28;20037;-87
2021/04/17 05:57:59;;;;;;;2.42;1.80;;;8.50;58.30;;;;;;5017133;28;20569;-84
2021/04/17 06:00:25;;;;;;;2.80;1.95;;;8.50;58.40;;;;;;5002290;28;20065;-84
2021/04/17 06:02:53;;;;;;;2.60;1.90;;;8.50;58.40;;;;;;4980847;28;20030;-83
2021/04/17 06:05:18;;;;;;;3.75;2.35;;;8.50;58.50;;;;;;5018045;28;20092;-83
2021/04/17 06:07:44;;;;;;;3.08;2.00;;;8.50;58.50;;;;;;5003575;28;20025;-83
2021/04/17 06:10:10;;;;;;;2.90;1.92;;;8.50;58.50;;;;;;5015806;28;20088;-83
2021/04/17 06:12:36;;;;;;;3.47;2.30;;;8.50;58.50;;;;;;5012567;28;20017;-87
2021/04/17 06:15:03;;;;;;;3.35;2.47;;;8.50;58.60;;;;;;5015345;28;20394;-81
2021/04/17 06:17:29;;;;;;;2.75;1.98;;;8.50;58.60;;;;;;5021629;28;20101;-83
2021/04/17 06:19:54;;;;;;;2.78;1.92;;;8.50;58.60;;;;;;5015324;28;20116;-83
2021/04/17 06:22:20;;;;;;;2.38;1.77;;;8.40;58.60;;;;;;5012712;28;20037;-84
2021/04/17 06:24:46;;;;;;;2.92;2.03;;;8.50;58.70;;;;;;5066965;28;20051;-84
2021/04/17 06:27:12;;;;;;;3.58;2.13;;;8.40;58.60;;;;;;5051098;28;20025;-84
2021/04/17 06:29:38;;;;;;;2.20;1.88;;;8.40;58.70;;;;;;5016463;28;20025;-88
2021/04/17 06:32:04;;;;;;;2.55;1.77;;;8.50;58.80;;;;;;5044269;28;20040;-84
2021/04/17 06:34:30;;;;;;;3.13;2.10;;;8.50;58.80;;;;;;4994540;28;20052;-81
2021/04/17 06:36:56;;;;;;;2.95;2.00;;;8.50;58.80;;;;;;5028348;28;20033;-82
2021/04/17 06:39:22;;;;;;;3.20;2.08;;;8.50;58.80;;;;;;5027932;28;20025;-81
2021/04/17 06:41:51;;;;;;;3.08;1.95;;;8.50;58.90;;;;;;5019366;28;20058;-83
2021/04/17 06:44:17;;;;;;;2.45;1.83;;;8.50;58.90;;;;;;5038743;28;20028;-83
2021/04/17 06:46:44;;;;;;;2.45;1.90;;;8.50;59.00;;;;;;5046590;28;20037;-82
2021/04/17 06:49:10;;;;;;;3.25;2.20;;;8.50;59.00;;;;;;5007946;28;20025;-85
2021/04/17 06:51:37;;;;;;;2.13;1.73;;;8.50;59.00;;;;;;5014915;28;20473;-83
2021/04/17 06:54:05;;;;;;;3.10;1.60;;;8.50;59.00;;;;;;5008253;28;20086;-85
2021/04/17 06:56:31;;;;;;;2.78;1.70;;;8.50;59.10;;;;;;5041488;28;20028;-83
2021/04/17 06:58:58;;;;;;;2.40;2.00;;;8.50;59.10;;;;;;5057162;28;20040;-84
2021/04/17 07:01:23;;;;;;;3.22;1.60;;;8.50;59.10;;;;;;5049337;28;20033;-85
2021/04/17 07:03:49;;;;;;;2.53;1.80;;;8.50;59.10;;;;;;5068192;28;20362;-86
2021/04/17 07:06:15;;;;;;;2.90;1.58;;;8.50;59.20;;;;;;5052877;28;20056;-84
2021/04/17 07:08:42;;;;;;;2.88;2.00;;;8.50;59.20;;;;;;5040700;28;20048;-86
2021/04/17 07:11:08;;;;;;;3.45;1.90;;;8.50;59.20;;;;;;5010452;28;20385;-84
2021/04/17 07:13:34;;;;;;;2.53;1.90;;;8.60;59.30;;;;;;5037628;28;20133;-85
2021/04/17 07:16:11;;;;;;;3.70;1.50;;;8.60;59.30;;;;;;5031803;28;20052;-84
2021/04/17 07:18:38;;;;;;;2.38;1.70;;;8.60;59.40;;;;;;5027575;28;20025;-84
2021/04/17 07:21:13;;;;;;;2.30;1.60;;;8.60;59.30;;;;;;5058603;28;20075;-83
2021/04/17 07:23:44;;;;;;;2.15;1.70;;;8.60;59.40;;;;;;5067748;28;20474;-84
2021/04/17 07:26:15;;;;;;;2.40;1.75;;;8.60;59.30;;;;;;5035217;28;20500;-84
2021/04/17 07:28:54;;;;;;;2.10;1.90;;;8.60;59.30;;;;;;5046981;28;20052;-83
2021/04/17 07:31:20;;;;;;;2.35;1.70;;;8.60;59.30;;;;;;5053572;28;20457;-85
2021/04/17 07:33:46;;;;;;;3.30;1.60;;;8.60;59.30;;;;;;5028972;28;20033;-85
2021/04/17 07:36:12;;;;;;;2.35;1.60;;;8.70;59.40;;;;;;5042057;28;20036;-84
2021/04/17 07:38:38;;;;;;;2.17;1.70;;;8.70;59.40;;;;;;5043668;28;20100;-85
2021/04/17 07:41:09;;;;;;;2.63;1.77;;;8.70;59.40;;;;;;5022706;28;20028;-85
2021/04/17 07:43:51;;;;;;;2.05;1.70;;;8.70;59.40;;;;;;5025222;28;20029;-85
2021/04/17 07:46:25;;;;;;;2.33;1.60;;;8.70;59.50;;;;;;5038988;28;20039;-84
2021/04/17 07:49:08;;;;;;;2.53;1.60;;;8.70;59.40;;;;;;5045398;28;20055;-85
2021/04/17 07:51:58;;;;;;;3.17;1.60;;;8.80;59.50;;;;;;5030314;28;20036;-83
2021/04/17 07:54:24;;;;;;;2.15;1.67;;;8.80;59.50;;;;;;5043834;28;20043;-84
2021/04/17 07:56:50;;;;;;;3.17;1.67;;;8.80;59.40;;;;;;5036633;28;20025;-84
2021/04/17 07:59:24;;;;;;;3.60;1.80;;;8.80;59.40;;;;;;5038376;28;20037;-82
2021/04/17 08:01:51;;;;;;;3.03;1.80;;;8.80;59.40;;;;;;5048410;28;20270;-82
2021/04/17 08:04:30;;;;;;;2.20;1.60;;;8.90;59.40;;;;;;5015047;28;20111;-82
2021/04/17 08:06:59;;;;;;;2.38;1.42;;;8.80;59.40;;;;;;5037828;28;20103;-84
2021/04/17 08:09:26;;;;;;;2.15;1.52;;;8.90;59.40;;;;;;5029248;28;20029;-84
2021/04/17 08:11:58;;;;;;;1.90;1.40;;;8.90;59.30;;;;;;5036078;28;20557;-83
2021/04/17 08:14:26;;;;;;;1.90;1.30;;;8.90;59.40;;;;;;5033912;28;20037;-82
2021/04/17 08:16:53;;;;;;;2.15;1.48;;;9.00;59.40;;;;;;5052137;28;20117;-85
2021/04/17 08:19:20;;;;;;;2.28;1.48;;;9.00;59.40;;;;;;5047263;28;20024;-84
2021/04/17 08:21:47;;;;;;;1.70;1.30;;;9.00;59.30;;;;;;5053285;28;20040;-80
2021/04/17 08:24:18;;;;;;;2.22;1.52;;;9.10;59.30;;;;;;5032629;28;20047;-82
2021/04/17 08:26:44;;;;;;;2.13;1.38;;;9.10;59.20;;;;;;5046052;28;20025;-79
2021/04/17 08:29:10;;;;;;;2.30;1.50;;;9.10;59.20;;;;;;5042190;28;20032;-82
2021/04/17 08:31:38;;;;;;;2.40;1.38;;;9.20;59.10;;;;;;5044648;28;20033;-81
2021/04/17 08:34:20;;;;;;;1.88;1.33;;;9.20;59.00;;;;;;5042457;28;20017;-82
2021/04/17 08:37:02;;;;;;;1.55;1.40;;;9.30;59.10;;;;;;5042091;28;20090;-84
2021/04/17 08:39:33;;;;;;;2.60;1.40;;;9.30;58.90;;;;;;5039944;28;20439;-82
2021/04/17 08:42:00;;;;;;;1.90;1.25;;;9.40;58.90;;;;;;5034964;28;20067;-83
2021/04/17 08:44:34;;;;;;;1.70;1.40;;;9.40;58.80;;;;;;5034696;28;20040;-84
2021/04/17 08:47:02;;;;;;;1.45;1.25;;;9.50;58.80;;;;;;5023197;28;20029;-81
2021/04/17 08:49:31;;;;;;;1.45;1.30;;;9.50;58.70;;;;;;5030498;28;20032;-81
2021/04/17 08:52:09;;;;;;;2.30;1.40;;;9.60;58.60;;;;;;5038063;28;20049;-79
2021/04/17 08:54:36;;;;;;;3.00;1.42;;;9.70;58.70;;;;;;5035754;28;20071;-81
2021/04/17 08:57:23;;;;;;;1.30;1.20;;;9.80;58.50;;;;;;5036216;28;20033;-80
2021/04/17 08:59:54;;;;;;;2.00;1.40;;;9.80;58.40;;;;;;5040630;28;20049;-86
2021/04/17 09:02:21;;;;;;;2.53;1.55;;;9.90;58.40;;;;;;5038642;28;20036;-84
2021/04/17 09:05:11;;;;;;;1.67;1.48;;;10.00;58.30;;;;;;5025562;28;20057;-81
2021/04/17 09:07:41;;;;;;;2.53;1.35;;;10.10;58.40;;;;;;5028027;28;20079;-81
2021/04/17 09:10:24;;;;;;;1.52;1.40;;;10.10;58.20;;;;;;5028211;28;20033;-81
2021/04/17 09:13:09;;;;;;;1.60;1.30;;;10.20;58.30;;;;;;5045109;28;20043;-86
2021/04/17 09:15:53;;;;;;;1.45;1.30;;;10.30;58.30;;;;;;5029951;28;20027;-82
2021/04/17 09:18:37;;;;;;;1.83;1.27;;;10.40;58.20;;;;;;5045379;28;20033;-81
2021/04/17 09:21:09;;;;;;;1.52;1.30;;;10.50;58.20;;;;;;5019300;28;20033;-82
2021/04/17 09:23:46;;;;;;;2.20;1.38;;;10.60;58.20;;;;;;5040960;28;20045;-82
2021/04/17 09:26:30;;;;;;;1.85;1.33;;;10.70;58.10;;;;;;5041133;28;20120;-82
2021/04/17 09:28:58;;;;;;;2.30;1.30;;;10.80;58.20;;;;;;5037537;28;20504;-83
2021/04/17 09:31:25;;;;;;;1.65;1.30;;;10.80;58.10;;;;;;5045046;28;20468;-83
2021/04/17 09:34:01;;;;;;;3.47;1.60;;;10.90;58.00;;;;;;5048644;28;20021;-82
2021/04/17 09:36:27;;;;;;;2.47;1.30;;;11.10;58.20;;;;;;5045455;28;20076;-82
2021/04/17 09:38:53;;;;;;;1.60;1.48;;;11.20;58.10;;;;;;5005224;28;20345;-85
2021/04/17 09:41:19;;;;;;;2.22;1.33;;;11.20;58.80;;;;;;5054605;28;20041;-81
2021/04/17 09:43:54;;;;;;;1.50;1.38;;;11.30;58.10;;;;;;5047152;28;20553;-81
2021/04/17 09:46:20;;;;;;;2.85;1.50;;;11.40;58.10;;;;;;5046663;28;20029;-82
2021/04/17 09:48:46;;;;;;;1.70;1.27;;;11.50;58.00;;;;;;5048817;28;20029;-82
2021/04/17 09:51:25;;;;;;;2.13;1.52;;;11.60;58.00;;;;;;5024628;28;20089;-82
2021/04/17 09:53:54;;;;;;;1.75;1.40;;;11.70;58.10;;;;;;5040419;28;20037;-83
2021/04/17 09:56:28;;;;;;;1.90;1.17;;;11.80;58.00;;;;;;5023445;28;20517;-82
2021/04/17 09:58:56;;;;;;;1.90;1.48;;;12.00;58.10;;;;;;5034752;28;20033;-85
2021/04/17 10:01:22;;;;;;;2.63;1.30;;;12.10;58.00;;;;;;5040923;28;20028;-84
2021/04/17 10:03:54;;;;;;;1.90;1.25;;;12.20;58.00;;;;;;5038205;28;20115;-82
2021/04/17 10:06:31;;;;;;;2.72;1.40;;;12.30;58.10;;;;;;5036351;28;20020;-82
2021/04/17 10:09:10;;;;;;;2.13;1.30;;;12.40;58.10;;;;;;5043945;28;20366;-83
2021/04/17 10:11:39;;;;;;;2.50;1.77;;;12.50;57.90;;;;;;5024648;28;20080;-82
2021/04/17 10:14:06;;;;;;;2.13;1.40;;;12.60;57.90;;;;;;5041465;28;20066;-86
2021/04/17 10:16:35;;;;;;;2.17;1.30;;;12.70;57.80;;;;;;5031448;28;20029;-88
2021/04/17 10:19:04;;;;;;;2.22;1.50;;;12.90;57.80;;;;;;5052830;28;20396;-82
2021/04/17 10:21:35;;;;;;;2.30;1.58;;;13.00;57.80;;;;;;5034519;28;20071;-82
2021/04/17 10:24:37;;;;;;;1.67;1.40;;;13.10;57.60;;;;;;5040620;28;20059;-82
2021/04/17 10:27:09;;;;;;;2.60;1.30;;;13.30;57.80;;;;;;5020416;28;20036;-82
2021/04/17 10:29:46;;;;;;;2.13;1.52;;;13.40;57.80;;;;;;5054494;28;20039;-85
2021/04/17 10:32:29;;;;;;;1.77;1.30;;;13.50;57.80;;;;;;5035894;28;20056;-83
2021/04/17 10:35:12;;;;;;;4.05;1.77;;;13.60;57.80;;;;;;5050438;28;20056;-81
2021/04/17 10:37:50;;;;;;;2.33;1.52;;;13.80;57.70;;;;;;5024904;28;20552;-82
2021/04/17 10:40:21;;;;;;;2.33;1.60;;;13.90;57.60;;;;;;5032194;28;20489;-82
2021/04/17 10:43:02;;;;;;;2.50;1.45;;;14.00;57.50;;;;;;5005496;28;20668;-82
2021/04/17 10:45:30;;;;;;;2.88;1.83;;;14.10;57.40;;;;;;5074543;28;20032;-83
2021/04/17 10:48:05;;;;;;;2.00;1.52;;;14.20;57.40;;;;;;5065366;28;20465;-82
2021/04/17 10:50:53;;;;;;;3.03;1.48;;;14.30;57.30;;;;;;5074114;28;20404;-84
2021/04/17 10:53:34;;;;;;;3.00;1.65;;;14.30;57.40;;;;;;5036077;28;20037;-82
2021/04/17 10:59:11;;;;;;;1.52;1.30;;;14.50;57.40;;;;;;5037392;28;20037;-82
2021/04/17 11:01:38;;;;;;;2.55;1.55;;;14.60;57.10;;;;;;5020457;28;20452;-86
2021/04/17 11:04:04;;;;;;;2.53;1.65;;;14.70;57.20;;;;;;5019265;28;20037;-82
2021/04/17 11:06:37;;;;;;;1.95;1.50;;;14.80;57.20;;;;;;5002969;28;20511;-82
2021/04/17 11:09:11;;;;;;;2.20;1.52;;;14.90;57.40;;;;;;5019602;28;20041;-82
2021/04/17 11:11:50;;;;;;;1.98;1.42;;;15.00;57.30;;;;;;5002849;28;20045;-81
2021/04/17 11:14:20;;;;;;;3.15;1.70;;;15.00;57.40;;;;;;5027020;28;20394;-82
2021/04/17 11:16:50;;;;;;;2.40;1.60;;;15.20;57.50;;;;;;5046879;28;20052;-81
2021/04/17 11:19:32;;;;;;;2.30;1.48;;;15.20;57.40;;;;;;5016240;28;20136;-81
2021/04/17 11:22:23;;;;;;;2.50;1.70;;;15.30;57.30;;;;;;5034016;28;20099;-82
2021/04/17 11:25:04;;;;;;;4.45;1.45;;;15.40;57.20;;;;;;5020337;28;20483;-82
2021/04/17 11:27:30;;;;;;;2.30;1.60;;;15.50;57.20;;;;;;5053190;28;20481;-82
2021/04/17 11:29:57;;;;;;;2.90;1.80;;;15.50;56.90;;;;;;5031474;28;20041;-82
2021/04/17 11:32:23;;;;;;;2.55;1.60;;;15.60;56.80;;;;;;5040216;28;20049;-82
2021/04/17 11:34:51;;;;;;;1.90;1.38;;;15.70;56.70;;;;;;5029682;28;20035;-82
2021/04/17 11:37:17;;;;;;;2.72;1.65;;;15.70;56.60;;;;;;5055017;28;20024;-83
2021/04/17 11:39:43;;;;;;;3.72;1.92;;;15.80;56.60;;;;;;5037451;28;20470;-82
2021/04/17 11:42:16;;;;;;;3.22;1.77;;;15.80;56.50;;;;;;5022965;28;20044;-82
2021/04/17 11:44:43;;;;;;;3.08;1.70;;;15.90;56.50;;;;;;5040226;28;20082;-81
2021/04/17 11:47:09;;;;;;;2.97;1.67;;;15.90;56.50;;;;;;5040105;28;20366;-82
2021/04/17 11:49:35;;;;;;;2.63;1.50;;;16.00;56.60;;;;;;5037666;28;20527;-83
2021/04/17 11:52:01;;;;;;;1.90;1.50;;;16.00;56.50;;;;;;5020797;28;20473;-82
2021/04/17 11:54:26;;;;;;;3.30;1.80;;;16.10;56.60;;;;;;5020548;28;20123;-82
2021/04/17 11:56:52;;;;;;;3.47;1.90;;;16.20;56.60;;;;;;5020216;28;20025;-82
2021/04/17 11:59:18;;;;;;;2.58;1.63;;;16.20;56.50;;;;;;5036336;28;20068;-82
2021/04/17 12:01:44;;;;;;;2.08;1.50;;;16.30;56.50;;;;;;5036699;28;20036;-82
2021/04/17 12:04:10;;;;;;;3.53;1.80;;;16.30;56.50;;;;;;5021228;28;20063;-83
2021/04/17 12:06:36;;;;;;;2.88;1.75;;;16.40;56.50;;;;;;5023642;28;20385;-84
2021/04/17 12:09:04;;;;;;;3.10;1.83;;;16.50;56.70;;;;;;5010299;28;20036;-83
2021/04/17 12:11:29;;;;;;;2.35;1.50;;;16.50;56.50;;;;;;5039538;28;20035;-82
2021/04/17 12:13:55;;;;;;;2.92;1.48;;;16.60;56.40;;;;;;5032418;28;20037;-83
2021/04/17 12:16:21;;;;;;;2.90;1.70;;;16.60;56.40;;;;;;5029815;28;20493;-83
2021/04/17 12:18:47;;;;;;;2.65;1.60;;;16.60;56.30;;;;;;5035920;28;20029;-83
2021/04/17 12:21:12;;;;;;;2.97;1.77;;;16.70;56.20;;;;;;5014130;28;20424;-83
2021/04/17 12:23:38;;;;;;;2.50;1.55;;;16.80;56.20;;;;;;5004002;28;20072;-83
2021/04/17 12:26:04;;;;;;;3.08;1.73;;;16.80;56.20;;;;;;5037335;28;20478;-83
2021/04/17 12:28:30;;;;;;;3.60;1.73;;;16.90;56.10;;;;;;5035492;28;20532;-82
2021/04/17 12:30:58;;;;;;;4.25;1.90;;;16.90;56.10;;;;;;5040077;28;20029;-83
2021/04/17 12:33:28;;;;;;;2.60;1.77;;;16.90;56.00;;;;;;5036610;28;20453;-82
2021/04/17 12:35:54;;;;;;;3.28;1.52;;;17.00;55.70;;;;;;5069778;28;20020;-87
2021/04/17 12:38:20;;;;;;;3.70;2.15;;;17.00;54.70;;;;;;5011676;28;20029;-85
2021/04/17 12:40:50;;;;;;;2.72;1.88;;;17.00;54.00;;;;;;5071518;28;20488;-85
2021/04/17 12:43:16;;;;;;;2.90;1.67;;;17.00;53.30;;;;;;5032991;28;20036;-89
2021/04/17 12:45:42;;;;;;;3.45;1.80;;;17.00;52.90;;;;;;5020333;28;20031;-83
2021/04/17 12:48:08;;;;;;;4.78;2.35;;;17.00;52.50;;;;;;5044485;28;20115;-89
2021/04/17 12:50:35;;;;;;;2.70;1.75;;;17.10;52.50;;;;;;5054047;28;20013;-88
2021/04/17 12:53:02;;;;;;;3.20;1.92;;;17.10;52.60;;;;;;5022341;28;20480;-89
2021/04/17 12:55:28;;;;;;;3.25;1.88;;;17.20;52.70;;;;;;4988186;28;20033;-88
2021/04/17 12:57:54;;;;;;;3.10;1.98;;;17.30;52.90;;;;;;5037263;28;20032;-82
2021/04/17 13:00:20;;;;;;;3.45;1.67;;;17.30;53.00;;;;;;5027058;28;20025;-87
2021/04/17 13:02:47;;;;;;;3.97;1.92;;;17.40;53.30;;;;;;5020822;28;20036;-88